Data for 10/14/2005

Time Sea-Level Adjusted Pressure Absolute Pressure Temperature Relative Humidity Dew Point   
(mb) (inHg) (mb) (inHg) (C) (F) (%) (C) (F)
00:05 1022 30.18 851 25.13 10.7 51.2 57 2.6 36.6
00:10 1022 30.18 851 25.13 10.5 50.9 58 2.8 37
00:15 1022 30.18 851 25.13 10 50 60 2.7 36.8
00:20 1022 30.18 851 25.13 9.9 49.8 59 2.4 36.3
00:25 1022 30.18 851 25.13 10.2 50.3 59 2.5 36.6
00:30 1022 30.18 851 25.13 9.3 48.7 64 2.9 37.2
00:35 1022 30.18 851 25.13 8.5 47.2 66 2.5 36.6
00:40 1022 30.18 851 25.13 8.5 47.2 65 2.2 36
00:45 1022 30.18 851 25.13 8.6 47.5 66 2.6 36.7
00:50 1022 30.18 851 25.13 8.4 47.1 66 2.5 36.4
00:55 1022 30.18 851 25.13 8.7 47.6 66 2.6 36.6
01:00 1022 30.18 851 25.13 8.8 47.8 65 2.6 36.8
01:05 1022 30.18 851 25.13 8.5 47.3 67 2.7 36.9
01:10 1022 30.18 852 25.16 8.2 46.8 67 2.5 36.5
01:15 1022 30.18 852 25.16 8 46.5 68 2.5 36.5
01:20 1022 30.18 852 25.16 8.1 46.6 67 2.4 36.4
01:25 1022 30.18 852 25.16 8.1 46.5 67 2.4 36.4
01:30 1023 30.21 852 25.16 7.8 46.1 68 2.3 36.2
01:35 1023 30.21 852 25.16 7.7 45.9 69 2.4 36.3
01:40 1023 30.21 852 25.16 7.5 45.6 69 2.3 36.2
01:45 1023 30.21 852 25.16 7.5 45.5 70 2.4 36.3
01:50 1022 30.18 852 25.16 7.2 44.9 72 2.4 36.3
01:55 1022 30.18 852 25.16 6.9 44.4 73 2.3 36.2
02:00 1022 30.18 852 25.16 6.7 44 73 2.2 36
02:05 1022 30.18 852 25.16 6.6 43.8 74 2.2 36
02:10 1022 30.18 852 25.16 6.6 43.9 73 2.1 35.8
02:15 1023 30.21 852 25.16 7.1 44.7 70 2 35.6
02:20 1023 30.21 852 25.16 7.6 45.7 67 1.9 35.4
02:25 1022 30.18 852 25.16 8 46.3 67 2.2 36
02:30 1022 30.18 852 25.16 7.9 46.2 67 2.2 35.9
02:35 1022 30.18 852 25.16 7.6 45.6 69 2.3 36.2
02:40 1023 30.21 852 25.16 7.1 44.8 71 2.1 35.8
02:45 1023 30.21 852 25.16 7 44.7 71 2.1 35.7
02:50 1023 30.21 852 25.16 7 44.5 70 1.8 35.3
02:55 1023 30.21 852 25.16 7 44.6 70 2 35.6
03:00 1023 30.21 852 25.16 7.1 44.7 69 1.8 35.3
03:05 1023 30.21 852 25.16 6.9 44.5 70 1.8 35.2
03:10 1023 30.21 852 25.16 7.1 44.8 69 1.8 35.2
03:15 1023 30.21 852 25.16 7.2 44.9 69 1.9 35.4
03:20 1023 30.21 852 25.16 6.9 44.4 71 1.9 35.4
03:25 1023 30.21 852 25.16 6.6 43.9 71 1.8 35.2
03:30 1023 30.21 852 25.16 6.7 44 70 1.6 34.9
03:35 1023 30.21 852 25.16 6.9 44.4 69 1.7 35.1
03:40 1023 30.21 852 25.16 7 44.5 69 1.7 35.1
03:45 1023 30.21 852 25.16 7.3 45.1 68 1.8 35.2
03:50 1023 30.21 852 25.16 7.1 44.8 69 1.8 35.2
03:55 1023 30.21 852 25.16 7.1 44.7 69 1.7 35.1
04:00 1023 30.21 852 25.16 7.2 44.9 69 1.8 35.3
04:05 1023 30.21 852 25.16 7 44.6 69 1.8 35.2
04:10 1023 30.21 852 25.16 6.9 44.4 69 1.6 34.9
04:15 1023 30.21 852 25.16 6.9 44.4 70 1.8 35.2
04:20 1023 30.21 852 25.16 6.6 43.8 71 1.7 35
04:25 1023 30.21 852 25.16 6.4 43.5 71 1.5 34.8
04:30 1023 30.21 852 25.16 6.7 44.1 69 1.5 34.6
04:35 1023 30.21 852 25.16 6.8 44.2 70 1.7 35.1
04:40 1023 30.21 852 25.16 6.7 44.1 69 1.5 34.6
04:45 1023 30.21 852 25.16 6.6 43.9 71 1.7 35
04:50 1023 30.21 852 25.16 6.4 43.5 72 1.7 35
04:55 1023 30.21 852 25.16 6.2 43.2 72 1.6 34.9
05:00 1023 30.21 852 25.16 6 42.8 72 1.4 34.6
05:05 1023 30.21 852 25.16 5.8 42.5 74 1.6 34.8
05:10 1023 30.21 852 25.16 5.5 42 74 1.3 34.4
05:15 1023 30.21 852 25.16 5.6 42.1 73 1.2 34.2
05:20 1023 30.21 852 25.16 5.8 42.4 73 1.3 34.4
05:25 1023 30.21 852 25.16 6 42.8 72 1.3 34.4
05:30 1023 30.21 852 25.16 6.1 43 72 1.4 34.5
05:35 1023 30.21 852 25.16 6 42.8 73 1.5 34.7
05:40 1023 30.21 852 25.16 6 42.8 72 1.4 34.4
05:45 1023 30.21 852 25.16 5.7 42.3 74 1.4 34.6
05:50 1023 30.21 852 25.16 5.2 41.4 75 1.2 34.1
05:55 1023 30.21 852 25.16 5.4 41.8 74 1.2 34.1
06:00 1023 30.21 852 25.16 5.5 41.8 74 1.2 34.2
06:05 1023 30.21 852 25.16 5.4 41.6 75 1.2 34.2
06:10 1023 30.21 853 25.19 5.2 41.3 75 1.1 34.1
06:15 1023 30.21 853 25.19 5.3 41.5 75 1.1 34
06:20 1023 30.21 853 25.19 5.5 41.9 73 1.1 33.9
06:25 1023 30.21 853 25.19 5.8 42.4 72 1.2 34.1
06:30 1023 30.21 853 25.19 5.6 42 73 1.2 34.1
06:35 1023 30.21 853 25.19 5.7 42.2 72 1.1 33.9
06:40 1023 30.21 853 25.19 6.1 43 70 1.1 34
06:45 1023 30.21 853 25.19 6.4 43.5 69 1.2 34.2
06:50 1023 30.21 853 25.19 6.2 43.1 71 1.2 34.2
06:55 1023 30.21 853 25.19 5.8 42.4 72 1.2 34.1
07:00 1023 30.21 853 25.19 5.6 42 73 1.1 33.9
07:05 1023 30.21 852 25.16 5.6 42 73 1.2 34.1
07:10 1023 30.21 852 25.16 5.8 42.4 72 1.2 34.1
07:15 1023 30.21 852 25.16 5.7 42.2 74 1.3 34.4
07:20 1023 30.21 853 25.19 5.8 42.4 73 1.3 34.3
07:25 1023 30.21 853 25.19 5.9 42.7 72 1.3 34.3
07:30 1023 30.21 853 25.19 6 42.8 72 1.3 34.3
07:35 1023 30.21 853 25.19 6.2 43.1 71 1.2 34.2
07:40 1023 30.21 853 25.19 6.2 43.1 70 1.2 34.1
07:45 1023 30.21 853 25.19 6.2 43.2 70 1.1 34
07:50 1024 30.24 853 25.19 6.4 43.4 69 1.1 34
07:55 1024 30.24 853 25.19 6.5 43.6 69 1.2 34.2
08:00 1024 30.24 853 25.19 6.8 44.2 66 0.8 33.5
08:05 1024 30.24 853 25.19 7.4 45.2 64 0.9 33.7
08:10 1024 30.24 853 25.19 7.5 45.6 63 1 33.7
08:15 1024 30.24 853 25.19 7.5 45.5 63 1 33.7
08:20 1024 30.24 853 25.19 7.5 45.4 64 1 33.8
08:25 1024 30.24 853 25.19 7.4 45.4 63 0.9 33.6
08:30 1024 30.24 853 25.19 7.7 45.8 64 1.2 34.2
08:35 1024 30.24 853 25.19 7.6 45.7 64 1.3 34.3
08:40 1024 30.24 853 25.19 7.8 46 61 0.7 33.2
08:45 1024 30.24 853 25.19 8.4 47.1 59 1 33.8
08:50 1024 30.24 853 25.19 8.6 47.5 58 1 33.8
08:55 1024 30.24 853 25.19 9.1 48.3 57 1.1 33.9
09:00 1024 30.24 853 25.19 9.4 49 56 1.2 34.1
09:05 1024 30.24 853 25.19 9.4 48.9 58 1.6 35
09:10 1024 30.24 853 25.19 9 48.2 59 1.4 34.6
09:15 1024 30.24 853 25.19 9.3 48.8 56 1.1 34
09:20 1024 30.24 853 25.19 9.9 49.7 54 1 33.8
09:25 1024 30.24 853 25.19 10.8 51.4 50 0.8 33.4
09:30 1024 30.24 853 25.19 11.4 52.5 49 1.1 34
09:35 1024 30.24 853 25.19 12 53.5 46 0.9 33.6
09:40 1024 30.24 853 25.19 12.2 54 47 1.2 34.1
09:45 1024 30.24 853 25.19 12.5 54.5 45 1.1 33.9
09:50 1024 30.24 853 25.19 13.4 56 44 1.4 34.6
09:55 1024 30.24 853 25.19 13.8 56.9 43 1.5 34.6
10:00 1024 30.24 853 25.19 14.1 57.4 42 1.6 35
10:05 1024 30.24 853 25.19 14 57.1 43 1.7 35
10:10 1024 30.24 853 25.19 14.2 57.6 42 1.7 35.1
10:15 1024 30.24 853 25.19 14.9 58.8 43 2.6 36.6
10:20 1024 30.24 853 25.19 14 57.2 48 3.3 38
10:25 1024 30.24 853 25.19 13.5 56.3 47 2.6 36.7
10:30 1024 30.24 853 25.19 14 57.2 46 2.7 36.8
10:35 1024 30.24 853 25.19 14.7 58.5 45 2.9 37.3
10:40 1023 30.21 853 25.19 14.7 58.5 46 3.4 38.1
10:45 1023 30.21 853 25.19 14.9 58.9 42 2.4 36.3
10:50 1023 30.21 853 25.19 15.6 60.1 42 2.7 36.9
10:55 1023 30.21 853 25.19 15.2 59.4 42 2.5 36.6
11:00 1023 30.21 852 25.16 15 59.1 42 2.3 36.2
11:05 1023 30.21 852 25.16 15.2 59.4 42 2.6 36.6
11:10 1023 30.21 852 25.16 15.6 60.1 40 2.2 35.9
11:15 1023 30.21 852 25.16 16.4 61.5 38 2.1 35.8
11:20 1023 30.21 852 25.16 16.7 62.1 38 2.4 36.3
11:25 1023 30.21 852 25.16 17.6 63.6 35 2.1 35.9
11:30 1023 30.21 852 25.16 18 64.3 34 1.9 35.4
11:35 1023 30.21 852 25.16 18 64.5 33 1.5 34.7
11:40 1023 30.21 852 25.16 18 64.5 32 1.3 34.3
11:45 1023 30.21 852 25.16 18 64.4 32 1.3 34.4
11:50 1023 30.21 852 25.16 17.9 64.2 32 1.1 33.9
11:55 1023 30.21 852 25.16 18.7 65.7 32 1.7 35.1
12:00 1023 30.21 852 25.16 19 66.1 33 2.7 36.8
12:05 1023 30.21 852 25.16 18.6 65.4 37 3.8 38.8
12:10 1023 30.21 852 25.16 17.5 63.4 37 2.6 36.7
12:15 1022 30.18 852 25.16 17.6 63.7 39 3.5 38.3
12:20 1022 30.18 852 25.16 17.3 63.1 39 3.5 38.2
12:25 1022 30.18 852 25.16 17.5 63.5 40 3.7 38.7
12:30 1022 30.18 852 25.16 17.9 64.1 40 4.2 39.6
12:35 1022 30.18 852 25.16 18.3 65 38 3.7 38.7
12:40 1022 30.18 851 25.13 18.2 64.7 41 4.8 40.7
12:45 1022 30.18 851 25.13 17.4 63.2 41 4.2 39.6
12:50 1022 30.18 851 25.13 17.6 63.6 38 3.4 38.1
12:55 1022 30.18 851 25.13 18.1 64.6 38 3.5 38.4
13:00 1022 30.18 851 25.13 19 66.1 35 3.4 38.2
13:05 1022 30.18 851 25.13 19.8 67.6 33 3.4 38.1
13:10 1022 30.18 851 25.13 20.4 68.7 32 3.2 37.8
13:15 1022 30.18 851 25.13 19.8 67.7 33 3.4 38
13:20 1022 30.18 851 25.13 20.3 68.5 31 2.7 36.8
13:25 1022 30.18 851 25.13 20 68 32 3 37.4
13:30 1022 30.18 851 25.13 20.1 68.1 35 4.2 39.6
13:35 1021 30.15 851 25.13 20 68 33 3.4 38.1
13:40 1021 30.15 851 25.13 20.8 69.5 32 3.6 38.6
13:45 1021 30.15 851 25.13 20.9 69.6 31 3.4 38.1
13:50 1021 30.15 850 25.1 21.5 70.7 29 3 37.4
13:55 1021 30.15 850 25.1 21.4 70.4 31 3.5 38.4
14:00 1021 30.15 850 25.1 20.7 69.3 30 2.7 36.9
14:05 1021 30.15 850 25.1 20.8 69.4 29 2.5 36.6
14:10 1021 30.15 850 25.1 21.1 70 28 2.3 36.2
14:15 1021 30.15 850 25.1 22.2 71.9 27 2.4 36.3
14:20 1021 30.15 850 25.1 22.6 72.6 27 2.7 36.8
14:25 1021 30.15 850 25.1 23 73.4 24 1.6 34.8
14:30 1021 30.15 850 25.1 23 73.4 24 1.8 35.3
14:35 1021 30.15 850 25.1 22.7 72.8 25 2.1 35.8
14:40 1021 30.15 850 25.1 22.8 73.1 25 2 35.6
14:45 1021 30.15 850 25.1 22.4 72.3 26 2.2 36
14:50 1020 30.12 850 25.1 22.1 71.7 26 2 35.6
14:55 1020 30.12 850 25.1 23.2 73.7 24 1.9 35.4
15:00 1020 30.12 850 25.1 23.7 74.6 23 1.6 34.9
15:05 1020 30.12 850 25.1 23.8 74.9 23 1.5 34.7
15:10 1020 30.12 849 25.07 23.3 73.9 23 1.5 34.6
15:15 1020 30.12 849 25.07 23 73.5 23 1.2 34.2
15:20 1020 30.12 849 25.07 23.6 74.4 23 1.2 34.2
15:25 1020 30.12 849 25.07 23.7 74.7 22 1 33.7
15:30 1020 30.12 849 25.07 23.8 74.8 22 1.2 34.1
15:35 1020 30.12 849 25.07 23.8 74.9 22 1.3 34.4
15:40 1020 30.12 849 25.07 24 75.3 22 1.3 34.4
15:45 1020 30.12 849 25.07 24.2 75.5 24 2.3 36.2
15:50 1020 30.12 849 25.07 24.4 75.9 21 1.2 34.1
15:55 1020 30.12 849 25.07 24.4 75.9 23 2.1 35.8
16:00 1020 30.12 849 25.07 23.7 74.6 23 1.5 34.7
16:05 1020 30.12 849 25.07 23.5 74.2 24 1.7 35.1
16:10 1020 30.12 849 25.07 23.4 74.1 24 1.6 34.9
16:15 1020 30.12 849 25.07 23.4 74 24 1.7 35.1
16:20 1020 30.12 849 25.07 23.3 74 23 1.4 34.5
16:25 1020 30.12 849 25.07 23.6 74.4 22 1.1 34
16:30 1019 30.09 849 25.07 23.8 74.8 22 1.1 34
16:35 1019 30.09 849 25.07 23.9 75 22 0.8 33.4
16:40 1019 30.09 849 25.07 23.8 74.8 22 1 33.9
16:45 1019 30.09 848 25.04 22.9 73.3 23 0.6 33.2
16:50 1019 30.09 848 25.04 23.5 74.3 22 0.6 33.1
16:55 1019 30.09 848 25.04 24.3 75.8 22 1.3 34.3
17:00 1019 30.09 848 25.04 24.6 76.2 20 0.7 33.2
17:05 1019 30.09 848 25.04 24.5 76.1 21 0.8 33.4
17:10 1019 30.09 848 25.04 24.1 75.4 21 0.7 33.3
17:15 1019 30.09 848 25.04 23.8 74.9 21 0.7 33.3
17:20 1019 30.09 848 25.04 24 75.1 21 0.8 33.4
17:25 1019 30.09 848 25.04 24.1 75.4 22 1.5 34.6
17:30 1019 30.09 848 25.04 23.9 75 22 1 33.8
17:35 1019 30.09 848 25.04 24 75.1 22 1.3 34.3
17:40 1019 30.09 848 25.04 23.8 74.9 22 1.3 34.3
17:45 1019 30.09 848 25.04 23.8 74.8 22 1.1 33.9
17:50 1019 30.09 848 25.04 23.9 74.9 22 1.1 34
17:55 1019 30.09 848 25.04 23.4 74.2 22 1 33.7
18:00 1019 30.09 848 25.04 22.9 73.1 24 1.2 34.2
18:05 1019 30.09 848 25.04 22.6 72.7 25 1.5 34.8
18:10 1019 30.09 848 25.04 22.2 71.9 26 1.8 35.3
18:15 1019 30.09 848 25.04 21.7 71 25 1 33.7
18:20 1019 30.09 848 25.04 21.4 70.5 26 1.2 34.2
18:25 1018 30.06 848 25.04 21.2 70.2 26 1.1 33.9
18:30 1018 30.06 848 25.04 21.3 70.3 26 1 33.7
18:35 1018 30.06 848 25.04 21.3 70.3 27 1.5 34.7
18:40 1018 30.06 848 25.04 20.9 69.7 31 3.2 37.8
18:45 1019 30.09 848 25.04 19.5 67 35 4 39.1
18:50 1019 30.09 848 25.04 18.1 64.6 39 3.9 39.1
18:55 1019 30.09 848 25.04 17.3 63.2 38 2.9 37.2
19:00 1019 30.09 848 25.04 17.1 62.8 37 2.3 36.1
19:05 1019 30.09 848 25.04 16.8 62.2 39 2.9 37.3
19:10 1019 30.09 848 25.04 16.3 61.3 44 4 39.3
19:15 1019 30.09 848 25.04 16.6 61.9 37 1.9 35.4
19:20 1019 30.09 848 25.04 16.5 61.6 38 2.1 35.7
19:25 1019 30.09 848 25.04 15.9 60.6 41 2.6 36.7
19:30 1019 30.09 848 25.04 15.5 59.8 39 1.6 35
19:35 1019 30.09 848 25.04 15.4 59.7 42 2.5 36.6
19:40 1019 30.09 848 25.04 15.2 59.4 38 1.1 33.9
19:45 1019 30.09 848 25.04 15.4 59.7 38 1.2 34.1
19:50 1019 30.09 848 25.04 15.1 59.1 39 1.3 34.3
19:55 1019 30.09 848 25.04 15.1 59.1 38 0.9 33.7
20:00 1019 30.09 848 25.04 15.2 59.4 37 0.9 33.6
20:05 1019 30.09 848 25.04 14.8 58.6 38 0.8 33.5
20:10 1019 30.09 848 25.04 14.9 58.9 36 0 32.1
20:15 1019 30.09 848 25.04 15 59.1 34 -0.4 31.2
20:20 1019 30.09 848 25.04 15.3 59.5 34 -0.3 31.5
20:25 1019 30.09 848 25.04 15.5 59.9 32 -0.8 30.5
20:30 1019 30.09 848 25.04 15.6 60 34 -0 32
20:35 1019 30.09 848 25.04 15.2 59.3 33 -0.8 30.5
20:40 1019 30.09 848 25.04 15.3 59.6 34 -0.5 31.2
20:45 1019 30.09 848 25.04 15.1 59.2 33 -0.9 30.4
20:50 1019 30.09 848 25.04 15 59 34 -0.8 30.5
20:55 1019 30.09 848 25.04 14.8 58.6 33 -1.1 30
21:00 1019 30.09 848 25.04 14.7 58.4 34 -0.9 30.4
21:05 1019 30.09 848 25.04 14.3 57.7 35 -0.9 30.5
21:10 1019 30.09 848 25.04 13.9 57 37 -0.7 30.8
21:15 1018 30.06 848 25.04 13.6 56.4 37 -0.6 30.9
21:20 1018 30.06 848 25.04 13.6 56.4 36 -1.3 29.6
21:25 1018 30.06 848 25.04 13.7 56.6 35 -1.3 29.7
21:30 1018 30.06 847 25.01 13.4 56.2 38 -0.6 30.9
21:35 1018 30.06 847 25.01 13.1 55.5 38 -0.9 30.4
21:40 1018 30.06 847 25.01 13.1 55.6 38 -0.7 30.7
21:45 1018 30.06 847 25.01 13.2 55.7 39 -0.3 31.5
21:50 1018 30.06 847 25.01 13.2 55.7 38 -0.6 30.8
21:55 1018 30.06 847 25.01 13.1 55.6 39 -0.7 30.8
22:00 1018 30.06 847 25.01 13 55.4 37 -1.1 29.9
22:05 1018 30.06 847 25.01 12.9 55.3 36 -1.6 29
22:10 1018 30.06 847 25.01 13.3 56 35 -1.6 29.2
22:15 1018 30.06 847 25.01 13.6 56.6 36 -1 30.1
22:20 1018 30.06 847 25.01 13.2 55.8 37 -1.1 29.9
22:25 1018 30.06 847 25.01 12.6 54.6 38 -1.2 29.8
22:30 1018 30.06 847 25.01 12.4 54.4 39 -1 30.1
22:35 1018 30.06 847 25.01 12.5 54.5 39 -1.2 29.9
22:40 1018 30.06 847 25.01 12.6 54.8 39 -1 30.1
22:45 1018 30.06 847 25.01 12.9 55.2 37 -1.5 29.3
22:50 1018 30.06 847 25.01 12.7 54.9 38 -1.2 29.8
22:55 1018 30.06 847 25.01 12.7 54.8 37 -1.7 28.9
23:00 1018 30.06 847 25.01 12.9 55.3 36 -1.8 28.7
23:05 1018 30.06 847 25.01 13.1 55.5 35 -1.9 28.6
23:10 1018 30.06 847 25.01 12.9 55.3 35 -2 28.5
23:15 1018 30.06 847 25.01 12.9 55.1 35 -2.1 28.2
23:20 1018 30.06 847 25.01 13 55.3 35 -2.1 28.3
23:25 1018 30.06 847 25.01 12.9 55.1 36 -1.7 28.9
23:30 1018 30.06 847 25.01 12.6 54.7 37 -1.8 28.7
23:35 1017 30.03 847 25.01 12.6 54.6 37 -1.8 28.8
23:40 1017 30.03 847 25.01 12.3 54.2 37 -1.9 28.6
23:45 1017 30.03 847 25.01 12.6 54.6 36 -1.9 28.5
23:50 1017 30.03 847 25.01 12.7 54.8 34 -2.7 27.1
23:55 1017 30.03 847 25.01 12.8 55 35 -2.2 28
24:00 1017 30.03 847 25.01 12.7 54.8 35 -2.4 27.7